SAS1716 EKCH-EFHK
Flight info
| Callsign | SAS1716 |
|---|---|
| Flight time | 1h 21m |
| Altitude | 37000 |
| Route | KEMAX T408 OTVEB DCT ALAMI DCT OKEVU DCT EVADI Y370 DIVAM |
| Aircraft | B738/M-SDE2E3FGHIRWXY/LB1 |
Departure
| Time | 2026-04-23 16:12 |
|---|---|
| Airport | Copenhagen Kastrup Airport (EKCH) |
Arrival
| Time | 2026-04-23 17:33 |
|---|---|
| Airport | Helsinki Vantaa Airport (EFHK) |
| Time | Latitude | Longitude | Altitude | Speed | Heading |
|---|---|---|---|---|---|
| 2026-04-23 15:48 | 55.62897 | 12.63516 | 27 ft | 0 kts | 42° |
| 2026-04-23 15:59 | 55.62890 | 12.63504 | 26 ft | 2 kts | 52° |
| 2026-04-23 15:59 | 55.62881 | 12.63484 | 26 ft | 2 kts | 47° |
| 2026-04-23 15:59 | 55.62871 | 12.63464 | 26 ft | 2 kts | 49° |
| 2026-04-23 15:59 | 55.62861 | 12.63445 | 26 ft | 2 kts | 48° |
| 2026-04-23 16:00 | 55.62851 | 12.63425 | 26 ft | 2 kts | 48° |
| 2026-04-23 16:00 | 55.62841 | 12.63405 | 26 ft | 2 kts | 49° |
| 2026-04-23 16:00 | 55.62829 | 12.63389 | 26 ft | 2 kts | 28° |
| 2026-04-23 16:00 | 55.62816 | 12.63375 | 26 ft | 2 kts | 35° |
| 2026-04-23 16:01 | 55.62804 | 12.63360 | 26 ft | 2 kts | 32° |
| 2026-04-23 16:01 | 55.62791 | 12.63346 | 26 ft | 2 kts | 33° |
| 2026-04-23 16:01 | 55.62778 | 12.63331 | 27 ft | 2 kts | 35° |
| 2026-04-23 16:01 | 55.62768 | 12.63312 | 27 ft | 2 kts | 58° |
| 2026-04-23 16:02 | 55.62761 | 12.63288 | 27 ft | 2 kts | 75° |
| 2026-04-23 16:02 | 55.62759 | 12.63263 | 27 ft | 2 kts | 92° |
| 2026-04-23 16:02 | 55.62762 | 12.63237 | 28 ft | 2 kts | 110° |
| 2026-04-23 16:02 | 55.62766 | 12.63218 | 28 ft | 0 kts | 122° |
| 2026-04-23 16:04 | 55.62764 | 12.63227 | 28 ft | 2 kts | 122° |
| 2026-04-23 16:04 | 55.62746 | 12.63274 | 27 ft | 6 kts | 123° |
| 2026-04-23 16:04 | 55.62714 | 12.63360 | 27 ft | 9 kts | 123° |
| 2026-04-23 16:05 | 55.62690 | 12.63432 | 28 ft | 11 kts | 115° |
| 2026-04-23 16:05 | 55.62672 | 12.63646 | 26 ft | 15 kts | 94° |
| 2026-04-23 16:05 | 55.62653 | 12.63842 | 26 ft | 15 kts | 117° |
| 2026-04-23 16:05 | 55.62595 | 12.64013 | 26 ft | 16 kts | 123° |
| 2026-04-23 16:06 | 55.62523 | 12.64204 | 26 ft | 20 kts | 123° |
| 2026-04-23 16:06 | 55.62442 | 12.64404 | 26 ft | 21 kts | 127° |
| 2026-04-23 16:06 | 55.62361 | 12.64606 | 26 ft | 18 kts | 121° |
| 2026-04-23 16:06 | 55.62304 | 12.64760 | 26 ft | 13 kts | 132° |
| 2026-04-23 16:07 | 55.62213 | 12.64774 | 26 ft | 15 kts | 212° |
| 2026-04-23 16:07 | 55.62114 | 12.64661 | 26 ft | 18 kts | 214° |
| 2026-04-23 16:07 | 55.62014 | 12.64544 | 26 ft | 15 kts | 210° |
| 2026-04-23 16:07 | 55.61902 | 12.64507 | 27 ft | 17 kts | 172° |
| 2026-04-23 16:08 | 55.61779 | 12.64547 | 28 ft | 18 kts | 171° |
| 2026-04-23 16:08 | 55.61655 | 12.64543 | 27 ft | 18 kts | 211° |
| 2026-04-23 16:08 | 55.61544 | 12.64414 | 27 ft | 19 kts | 213° |
| 2026-04-23 16:08 | 55.61430 | 12.64281 | 28 ft | 19 kts | 213° |
| 2026-04-23 16:09 | 55.61312 | 12.64141 | 27 ft | 20 kts | 212° |
| 2026-04-23 16:09 | 55.61189 | 12.64000 | 27 ft | 21 kts | 213° |
| 2026-04-23 16:09 | 55.61064 | 12.63860 | 25 ft | 19 kts | 213° |
| 2026-04-23 16:09 | 55.60955 | 12.63737 | 24 ft | 17 kts | 213° |
| 2026-04-23 16:10 | 55.60859 | 12.63626 | 23 ft | 15 kts | 214° |
| 2026-04-23 16:10 | 55.60775 | 12.63625 | 23 ft | 12 kts | 130° |
| 2026-04-23 16:10 | 55.60720 | 12.63738 | 22 ft | 13 kts | 131° |
| 2026-04-23 16:10 | 55.60685 | 12.63872 | 22 ft | 12 kts | 58° |
| 2026-04-23 16:11 | 55.60774 | 12.64015 | 22 ft | 37 kts | 40° |
| 2026-04-23 16:11 | 55.61139 | 12.64578 | 27 ft | 99 kts | 42° |
| 2026-04-23 16:11 | 55.61792 | 12.65592 | 26 ft | 151 kts | 40° |
| 2026-04-23 16:11 | 55.62624 | 12.66960 | 406 ft | 165 kts | 40° |
| 2026-04-23 16:12 | 55.63457 | 12.68361 | 914 ft | 173 kts | 39° |
| 2026-04-23 16:12 | 55.64379 | 12.69815 | 1293 ft | 187 kts | 38° |
| 2026-04-23 16:12 | 55.65472 | 12.71398 | 1537 ft | 215 kts | 36° |
| 2026-04-23 16:12 | 55.66708 | 12.73152 | 1965 ft | 236 kts | 37° |
| 2026-04-23 16:13 | 55.67966 | 12.75017 | 2599 ft | 248 kts | 37° |
| 2026-04-23 16:13 | 55.70680 | 12.79083 | 4124 ft | 257 kts | 36° |
| 2026-04-23 16:13 | 55.72049 | 12.81114 | 4929 ft | 260 kts | 37° |
| 2026-04-23 16:14 | 55.73419 | 12.83152 | 5701 ft | 262 kts | 37° |
| 2026-04-23 16:14 | 55.74785 | 12.85224 | 6532 ft | 263 kts | 38° |
| 2026-04-23 16:14 | 55.76142 | 12.87364 | 7295 ft | 266 kts | 38° |
| 2026-04-23 16:14 | 55.77523 | 12.89537 | 8064 ft | 269 kts | 38° |
| 2026-04-23 16:15 | 55.78926 | 12.91737 | 8846 ft | 272 kts | 37° |
| 2026-04-23 16:15 | 55.80344 | 12.93970 | 9482 ft | 280 kts | 37° |
| 2026-04-23 16:15 | 55.81779 | 12.96240 | 10335 ft | 280 kts | 37° |
| 2026-04-23 16:15 | 55.83263 | 12.98582 | 10664 ft | 300 kts | 37° |
| 2026-04-23 16:16 | 55.84803 | 13.01315 | 10912 ft | 325 kts | 45° |
| 2026-04-23 16:16 | 55.86251 | 13.04469 | 11464 ft | 335 kts | 46° |
| 2026-04-23 16:16 | 55.87758 | 13.07714 | 12133 ft | 341 kts | 45° |
| 2026-04-23 16:16 | 55.89275 | 13.10910 | 12868 ft | 345 kts | 45° |
| 2026-04-23 16:17 | 55.90835 | 13.14211 | 13594 ft | 349 kts | 45° |
| 2026-04-23 16:17 | 55.92387 | 13.17514 | 14347 ft | 352 kts | 45° |
| 2026-04-23 16:17 | 55.93931 | 13.20806 | 15063 ft | 355 kts | 45° |
| 2026-04-23 16:17 | 55.95523 | 13.24178 | 15763 ft | 359 kts | 45° |
| 2026-04-23 16:18 | 55.97138 | 13.27604 | 16472 ft | 362 kts | 45° |
| 2026-04-23 16:18 | 55.98734 | 13.31003 | 17141 ft | 365 kts | 45° |
| 2026-04-23 16:18 | 56.00365 | 13.34483 | 17811 ft | 367 kts | 44° |
| 2026-04-23 16:18 | 56.02020 | 13.38014 | 18410 ft | 372 kts | 44° |
| 2026-04-23 16:19 | 56.03488 | 13.41148 | 18963 ft | 374 kts | 44° |
| 2026-04-23 16:19 | 56.05162 | 13.44735 | 19567 ft | 377 kts | 44° |
| 2026-04-23 16:19 | 56.06847 | 13.48346 | 20134 ft | 380 kts | 44° |
| 2026-04-23 16:19 | 56.08516 | 13.51930 | 20728 ft | 382 kts | 44° |
| 2026-04-23 16:20 | 56.10173 | 13.55494 | 21200 ft | 386 kts | 44° |
| 2026-04-23 16:20 | 56.11140 | 13.57575 | 21527 ft | 387 kts | 44° |
| 2026-04-23 16:20 | 56.14156 | 13.64080 | 22514 ft | 391 kts | 44° |
| 2026-04-23 16:21 | 56.15904 | 13.67857 | 22976 ft | 394 kts | 45° |
| 2026-04-23 16:21 | 56.17644 | 13.71622 | 23495 ft | 396 kts | 45° |
| 2026-04-23 16:21 | 56.19414 | 13.75461 | 23991 ft | 398 kts | 45° |
| 2026-04-23 16:21 | 56.21174 | 13.79282 | 24426 ft | 401 kts | 45° |
| 2026-04-23 16:22 | 56.22949 | 13.83141 | 24867 ft | 404 kts | 45° |
| 2026-04-23 16:22 | 56.24746 | 13.87055 | 25311 ft | 406 kts | 45° |
| 2026-04-23 16:22 | 56.25935 | 13.89652 | 25589 ft | 408 kts | 45° |
| 2026-04-23 16:22 | 56.27711 | 13.93528 | 25966 ft | 411 kts | 45° |
| 2026-04-23 16:23 | 56.29501 | 13.97443 | 26351 ft | 413 kts | 45° |
| 2026-04-23 16:23 | 56.31323 | 14.01437 | 26729 ft | 416 kts | 45° |
| 2026-04-23 16:23 | 56.33744 | 14.06755 | 27260 ft | 418 kts | 45° |
| 2026-04-23 16:23 | 56.35590 | 14.10815 | 27590 ft | 421 kts | 45° |
| 2026-04-23 16:24 | 56.36823 | 14.13531 | 27817 ft | 422 kts | 45° |
| 2026-04-23 16:24 | 56.38675 | 14.17617 | 28181 ft | 424 kts | 45° |
| 2026-04-23 16:24 | 56.40540 | 14.21739 | 28494 ft | 426 kts | 45° |
| 2026-04-23 16:24 | 56.42374 | 14.25798 | 28780 ft | 429 kts | 45° |
| 2026-04-23 16:25 | 56.44360 | 14.30204 | 29133 ft | 431 kts | 45° |
| 2026-04-23 16:25 | 56.46283 | 14.34482 | 29555 ft | 430 kts | 45° |
| 2026-04-23 16:25 | 56.48436 | 14.39277 | 30110 ft | 427 kts | 45° |
| 2026-04-23 16:25 | 56.50312 | 14.43462 | 30506 ft | 426 kts | 44° |
| 2026-04-23 16:26 | 56.52167 | 14.47602 | 30936 ft | 424 kts | 44° |
| 2026-04-23 16:26 | 56.54031 | 14.51772 | 31298 ft | 424 kts | 44° |
| 2026-04-23 16:26 | 56.55889 | 14.55938 | 31661 ft | 423 kts | 44° |
| 2026-04-23 16:26 | 56.57706 | 14.60019 | 32022 ft | 423 kts | 44° |
| 2026-04-23 16:27 | 56.59546 | 14.64161 | 32396 ft | 422 kts | 44° |
| 2026-04-23 16:27 | 56.61382 | 14.68302 | 32703 ft | 422 kts | 45° |
| 2026-04-23 16:27 | 56.63238 | 14.72491 | 33011 ft | 422 kts | 44° |
| 2026-04-23 16:27 | 56.65073 | 14.76638 | 33387 ft | 420 kts | 44° |
| 2026-04-23 16:28 | 56.66877 | 14.80726 | 33695 ft | 420 kts | 44° |
| 2026-04-23 16:28 | 56.68708 | 14.84882 | 34011 ft | 419 kts | 44° |
| 2026-04-23 16:28 | 56.70523 | 14.89010 | 34329 ft | 419 kts | 44° |
| 2026-04-23 16:28 | 56.72323 | 14.93107 | 34631 ft | 418 kts | 44° |
| 2026-04-23 16:29 | 56.74130 | 14.97227 | 34940 ft | 417 kts | 44° |
| 2026-04-23 16:29 | 56.75923 | 15.01322 | 35244 ft | 416 kts | 44° |
| 2026-04-23 16:29 | 56.77715 | 15.05432 | 35549 ft | 415 kts | 44° |
| 2026-04-23 16:29 | 56.79510 | 15.09555 | 35813 ft | 414 kts | 44° |
| 2026-04-23 16:30 | 56.81300 | 15.13661 | 36090 ft | 413 kts | 44° |
| 2026-04-23 16:30 | 56.83080 | 15.17744 | 36325 ft | 414 kts | 44° |
| 2026-04-23 16:30 | 56.84864 | 15.21850 | 36553 ft | 414 kts | 44° |
| 2026-04-23 16:30 | 56.86646 | 15.25965 | 36798 ft | 413 kts | 44° |
| 2026-04-23 16:31 | 56.88406 | 15.30037 | 37016 ft | 413 kts | 44° |
| 2026-04-23 16:31 | 56.90181 | 15.34140 | 37043 ft | 416 kts | 44° |
| 2026-04-23 16:31 | 56.93744 | 15.42412 | 37046 ft | 413 kts | 44° |
| 2026-04-23 16:32 | 56.97263 | 15.50627 | 37046 ft | 411 kts | 43° |
| 2026-04-23 16:32 | 57.00789 | 15.58852 | 37047 ft | 412 kts | 43° |
| 2026-04-23 16:33 | 57.04329 | 15.67159 | 37047 ft | 413 kts | 44° |
| 2026-04-23 16:33 | 57.07856 | 15.75471 | 37047 ft | 413 kts | 44° |
| 2026-04-23 16:34 | 57.11394 | 15.83825 | 37046 ft | 413 kts | 44° |
| 2026-04-23 16:34 | 57.14916 | 15.92173 | 37047 ft | 412 kts | 44° |
| 2026-04-23 16:35 | 57.18396 | 16.00453 | 37047 ft | 412 kts | 44° |
| 2026-04-23 16:35 | 57.21864 | 16.08756 | 37046 ft | 406 kts | 43° |
| 2026-04-23 16:36 | 57.25293 | 16.16950 | 37047 ft | 407 kts | 43° |
| 2026-04-23 16:36 | 57.28715 | 16.25168 | 37047 ft | 408 kts | 43° |
| 2026-04-23 16:37 | 57.32169 | 16.33501 | 37047 ft | 407 kts | 43° |
| 2026-04-23 16:37 | 57.35606 | 16.41811 | 37047 ft | 407 kts | 43° |
| 2026-04-23 16:38 | 57.39021 | 16.50100 | 37047 ft | 407 kts | 43° |
| 2026-04-23 16:38 | 57.42436 | 16.58426 | 37047 ft | 407 kts | 43° |
| 2026-04-23 16:39 | 57.45839 | 16.66746 | 37044 ft | 406 kts | 44° |
| 2026-04-23 16:39 | 57.49250 | 16.75114 | 37039 ft | 406 kts | 44° |
| 2026-04-23 16:40 | 57.52650 | 16.83495 | 37034 ft | 405 kts | 44° |
| 2026-04-23 16:40 | 57.56025 | 16.91826 | 37035 ft | 404 kts | 44° |
| 2026-04-23 16:41 | 57.59381 | 17.00156 | 37042 ft | 403 kts | 44° |
| 2026-04-23 16:41 | 57.62740 | 17.08501 | 37046 ft | 403 kts | 44° |
| 2026-04-23 16:42 | 57.66095 | 17.16879 | 37047 ft | 401 kts | 44° |
| 2026-04-23 16:42 | 57.69423 | 17.25217 | 37047 ft | 400 kts | 43° |
| 2026-04-23 16:43 | 57.72762 | 17.33604 | 37047 ft | 399 kts | 44° |
| 2026-04-23 16:43 | 57.76061 | 17.41930 | 37047 ft | 398 kts | 43° |
| 2026-04-23 16:44 | 57.79348 | 17.50250 | 37047 ft | 398 kts | 43° |
| 2026-04-23 16:44 | 57.82645 | 17.58615 | 37047 ft | 398 kts | 43° |
| 2026-04-23 16:45 | 57.85929 | 17.66998 | 37047 ft | 398 kts | 44° |
| 2026-04-23 16:45 | 57.89218 | 17.75400 | 37047 ft | 398 kts | 44° |
| 2026-04-23 16:46 | 57.92485 | 17.83792 | 37047 ft | 398 kts | 44° |
| 2026-04-23 16:46 | 57.95747 | 17.92200 | 37047 ft | 398 kts | 44° |
| 2026-04-23 16:47 | 57.99009 | 18.00630 | 37047 ft | 397 kts | 44° |
| 2026-04-23 16:47 | 58.02262 | 18.09068 | 37047 ft | 398 kts | 44° |
| 2026-04-23 16:48 | 58.05499 | 18.17495 | 37047 ft | 398 kts | 44° |
| 2026-04-23 16:48 | 58.08751 | 18.25992 | 37046 ft | 398 kts | 44° |
| 2026-04-23 16:49 | 58.11970 | 18.34432 | 37041 ft | 398 kts | 44° |
| 2026-04-23 16:49 | 58.15215 | 18.42970 | 37035 ft | 398 kts | 44° |
| 2026-04-23 16:50 | 58.18433 | 18.51466 | 37030 ft | 398 kts | 44° |
| 2026-04-23 16:50 | 58.21647 | 18.59985 | 37025 ft | 399 kts | 44° |
| 2026-04-23 16:51 | 58.24869 | 18.68555 | 37020 ft | 400 kts | 45° |
| 2026-04-23 16:51 | 58.28101 | 18.77181 | 37020 ft | 401 kts | 45° |
| 2026-04-23 16:52 | 58.31316 | 18.85797 | 37020 ft | 400 kts | 45° |
| 2026-04-23 16:52 | 58.34525 | 18.94423 | 37020 ft | 400 kts | 45° |
| 2026-04-23 16:53 | 58.37632 | 19.02807 | 37020 ft | 400 kts | 45° |
| 2026-04-23 16:53 | 58.40816 | 19.11429 | 37020 ft | 401 kts | 44° |
| 2026-04-23 16:54 | 58.44006 | 19.20097 | 37020 ft | 402 kts | 44° |
| 2026-04-23 16:54 | 58.47215 | 19.28851 | 37019 ft | 401 kts | 44° |
| 2026-04-23 16:55 | 58.50391 | 19.37548 | 37020 ft | 400 kts | 44° |
| 2026-04-23 16:55 | 58.53561 | 19.46255 | 37020 ft | 400 kts | 44° |
| 2026-04-23 16:56 | 58.56721 | 19.54967 | 37020 ft | 400 kts | 44° |
| 2026-04-23 16:56 | 58.59891 | 19.63740 | 36995 ft | 401 kts | 44° |
| 2026-04-23 16:57 | 58.63041 | 19.72490 | 36993 ft | 403 kts | 45° |
| 2026-04-23 16:57 | 58.66237 | 19.81401 | 36993 ft | 404 kts | 45° |
| 2026-04-23 16:58 | 58.69418 | 19.90305 | 36993 ft | 404 kts | 45° |
| 2026-04-23 16:58 | 58.72602 | 19.99254 | 36986 ft | 404 kts | 45° |
| 2026-04-23 16:59 | 58.75738 | 20.08098 | 36976 ft | 402 kts | 45° |
| 2026-04-23 16:59 | 58.78907 | 20.17065 | 36966 ft | 402 kts | 45° |
| 2026-04-23 17:00 | 58.81364 | 20.24044 | 36966 ft | 403 kts | 45° |
| 2026-04-23 17:00 | 58.84500 | 20.32978 | 36966 ft | 403 kts | 45° |
| 2026-04-23 17:01 | 58.87588 | 20.41812 | 36965 ft | 402 kts | 45° |
| 2026-04-23 17:01 | 58.90709 | 20.50772 | 36965 ft | 401 kts | 45° |
| 2026-04-23 17:02 | 58.93830 | 20.59760 | 36966 ft | 402 kts | 45° |
| 2026-04-23 17:02 | 58.96940 | 20.68761 | 36966 ft | 403 kts | 46° |
| 2026-04-23 17:03 | 59.00046 | 20.77778 | 36965 ft | 403 kts | 46° |
| 2026-04-23 17:03 | 59.03138 | 20.86794 | 36966 ft | 403 kts | 46° |
| 2026-04-23 17:04 | 59.06213 | 20.95956 | 36958 ft | 405 kts | 48° |
| 2026-04-23 17:04 | 59.09105 | 21.05264 | 36948 ft | 404 kts | 49° |
| 2026-04-23 17:05 | 59.12039 | 21.14612 | 36939 ft | 404 kts | 48° |
| 2026-04-23 17:05 | 59.14923 | 21.23844 | 36939 ft | 404 kts | 48° |
| 2026-04-23 17:06 | 59.17832 | 21.33188 | 36938 ft | 403 kts | 49° |
| 2026-04-23 17:06 | 59.20746 | 21.42545 | 36939 ft | 401 kts | 47° |
| 2026-04-23 17:07 | 59.23811 | 21.51625 | 36939 ft | 400 kts | 46° |
| 2026-04-23 17:07 | 59.26812 | 21.60673 | 36363 ft | 395 kts | 47° |
| 2026-04-23 17:08 | 59.28279 | 21.65158 | 35763 ft | 393 kts | 47° |
| 2026-04-23 17:08 | 59.29723 | 21.69567 | 35186 ft | 391 kts | 47° |
| 2026-04-23 17:08 | 59.31175 | 21.74007 | 34706 ft | 386 kts | 47° |
| 2026-04-23 17:08 | 59.32597 | 21.78382 | 34220 ft | 381 kts | 47° |
| 2026-04-23 17:09 | 59.34015 | 21.82766 | 33709 ft | 377 kts | 47° |
| 2026-04-23 17:09 | 59.35410 | 21.87084 | 33220 ft | 373 kts | 47° |
| 2026-04-23 17:09 | 59.36771 | 21.91305 | 32742 ft | 368 kts | 47° |
| 2026-04-23 17:09 | 59.38121 | 21.95505 | 32267 ft | 364 kts | 47° |
| 2026-04-23 17:10 | 59.39478 | 21.99726 | 31788 ft | 359 kts | 47° |
| 2026-04-23 17:10 | 59.40784 | 22.03778 | 31326 ft | 354 kts | 47° |
| 2026-04-23 17:10 | 59.42100 | 22.07861 | 30861 ft | 349 kts | 47° |
| 2026-04-23 17:10 | 59.43367 | 22.11810 | 30412 ft | 345 kts | 47° |
| 2026-04-23 17:11 | 59.44625 | 22.15756 | 29967 ft | 340 kts | 47° |
| 2026-04-23 17:11 | 59.45854 | 22.19622 | 29529 ft | 335 kts | 47° |
| 2026-04-23 17:11 | 59.47105 | 22.23547 | 29089 ft | 338 kts | 47° |
| 2026-04-23 17:11 | 59.48343 | 22.27405 | 28648 ft | 340 kts | 47° |
| 2026-04-23 17:12 | 59.49578 | 22.31310 | 28204 ft | 335 kts | 47° |
| 2026-04-23 17:12 | 59.50779 | 22.35132 | 27771 ft | 330 kts | 47° |
| 2026-04-23 17:12 | 59.51984 | 22.38955 | 27341 ft | 328 kts | 47° |
| 2026-04-23 17:12 | 59.53197 | 22.42770 | 26910 ft | 333 kts | 47° |
| 2026-04-23 17:13 | 59.54406 | 22.46603 | 26468 ft | 328 kts | 48° |
| 2026-04-23 17:13 | 59.55596 | 22.50412 | 26037 ft | 324 kts | 47° |
| 2026-04-23 17:13 | 59.56770 | 22.54161 | 25617 ft | 326 kts | 47° |
| 2026-04-23 17:13 | 59.57973 | 22.57968 | 25185 ft | 329 kts | 47° |
| 2026-04-23 17:14 | 59.59189 | 22.61830 | 24744 ft | 330 kts | 48° |
| 2026-04-23 17:14 | 59.60242 | 22.65207 | 24358 ft | 328 kts | 49° |
| 2026-04-23 17:14 | 59.60274 | 22.65310 | 24346 ft | 327 kts | 49° |
| 2026-04-23 17:14 | 59.60338 | 22.65514 | 24323 ft | 327 kts | 49° |
| 2026-04-23 17:15 | 59.61914 | 22.70597 | 23748 ft | 324 kts | 49° |
| 2026-04-23 17:15 | 59.63083 | 22.74352 | 23322 ft | 321 kts | 49° |
| 2026-04-23 17:15 | 59.64260 | 22.78127 | 22893 ft | 320 kts | 49° |
| 2026-04-23 17:16 | 59.65423 | 22.81872 | 22468 ft | 318 kts | 49° |
| 2026-04-23 17:16 | 59.66563 | 22.85554 | 22048 ft | 317 kts | 49° |
| 2026-04-23 17:16 | 59.67715 | 22.89278 | 21624 ft | 318 kts | 49° |
| 2026-04-23 17:16 | 59.68898 | 22.93068 | 21194 ft | 337 kts | 49° |
| 2026-04-23 17:17 | 59.70167 | 22.97138 | 20718 ft | 351 kts | 50° |
| 2026-04-23 17:17 | 59.71428 | 23.01272 | 20243 ft | 350 kts | 50° |
| 2026-04-23 17:17 | 59.72687 | 23.05411 | 19771 ft | 346 kts | 50° |
| 2026-04-23 17:17 | 59.73933 | 23.09481 | 19309 ft | 342 kts | 49° |
| 2026-04-23 17:18 | 59.76372 | 23.17454 | 18406 ft | 338 kts | 49° |
| 2026-04-23 17:18 | 59.77573 | 23.21388 | 17961 ft | 336 kts | 49° |
| 2026-04-23 17:18 | 59.78775 | 23.25337 | 17514 ft | 335 kts | 49° |
| 2026-04-23 17:19 | 59.79968 | 23.29271 | 17069 ft | 332 kts | 50° |
| 2026-04-23 17:19 | 59.81158 | 23.33196 | 16626 ft | 330 kts | 50° |
| 2026-04-23 17:19 | 59.82342 | 23.37094 | 16184 ft | 328 kts | 50° |
| 2026-04-23 17:19 | 59.83508 | 23.40938 | 15749 ft | 327 kts | 50° |
| 2026-04-23 17:20 | 59.84670 | 23.44790 | 15313 ft | 324 kts | 50° |
| 2026-04-23 17:20 | 59.86970 | 23.52431 | 14449 ft | 319 kts | 50° |
| 2026-04-23 17:21 | 59.89234 | 23.59961 | 13595 ft | 316 kts | 51° |
| 2026-04-23 17:21 | 59.90348 | 23.63680 | 13174 ft | 314 kts | 51° |
| 2026-04-23 17:21 | 59.92572 | 23.71119 | 12333 ft | 311 kts | 52° |
| 2026-04-23 17:22 | 59.93662 | 23.74772 | 11921 ft | 309 kts | 52° |
| 2026-04-23 17:22 | 59.95860 | 23.82134 | 11086 ft | 310 kts | 53° |
| 2026-04-23 17:23 | 59.98069 | 23.89542 | 10239 ft | 312 kts | 54° |
| 2026-04-23 17:23 | 59.99165 | 23.93243 | 9817 ft | 313 kts | 55° |
| 2026-04-23 17:23 | 60.01355 | 24.00658 | 8968 ft | 314 kts | 56° |
| 2026-04-23 17:24 | 60.02452 | 24.04399 | 8544 ft | 313 kts | 56° |
| 2026-04-23 17:24 | 60.03538 | 24.08133 | 8123 ft | 310 kts | 56° |
| 2026-04-23 17:24 | 60.05704 | 24.15548 | 7285 ft | 305 kts | 56° |
| 2026-04-23 17:25 | 60.07802 | 24.22734 | 6471 ft | 302 kts | 56° |
| 2026-04-23 17:25 | 60.08862 | 24.26374 | 6060 ft | 300 kts | 56° |
| 2026-04-23 17:26 | 60.10919 | 24.33454 | 5441 ft | 283 kts | 56° |
| 2026-04-23 17:26 | 60.12819 | 24.40009 | 5000 ft | 264 kts | 56° |
| 2026-04-23 17:27 | 60.14602 | 24.46172 | 4552 ft | 249 kts | 56° |
| 2026-04-23 17:27 | 60.15465 | 24.49160 | 4325 ft | 242 kts | 56° |
| 2026-04-23 17:27 | 60.16296 | 24.52043 | 4101 ft | 236 kts | 56° |
| 2026-04-23 17:27 | 60.17104 | 24.54851 | 3877 ft | 231 kts | 56° |
| 2026-04-23 17:28 | 60.17894 | 24.57597 | 3661 ft | 226 kts | 56° |
| 2026-04-23 17:28 | 60.18676 | 24.60320 | 3463 ft | 223 kts | 56° |
| 2026-04-23 17:28 | 60.19454 | 24.63029 | 3265 ft | 223 kts | 56° |
| 2026-04-23 17:28 | 60.20214 | 24.65681 | 3070 ft | 219 kts | 57° |
| 2026-04-23 17:29 | 60.21035 | 24.68201 | 2939 ft | 204 kts | 45° |
| 2026-04-23 17:29 | 60.21989 | 24.70173 | 2802 ft | 192 kts | 42° |
| 2026-04-23 17:29 | 60.23756 | 24.73897 | 2406 ft | 177 kts | 43° |
| 2026-04-23 17:30 | 60.24584 | 24.75701 | 2156 ft | 177 kts | 44° |
| 2026-04-23 17:30 | 60.26236 | 24.79310 | 1676 ft | 162 kts | 44° |
| 2026-04-23 17:30 | 60.26955 | 24.80883 | 1466 ft | 146 kts | 45° |
| 2026-04-23 17:31 | 60.27640 | 24.82380 | 1269 ft | 146 kts | 44° |
| 2026-04-23 17:31 | 60.28324 | 24.83885 | 1069 ft | 145 kts | 44° |
| 2026-04-23 17:31 | 60.29011 | 24.85393 | 882 ft | 146 kts | 44° |
| 2026-04-23 17:31 | 60.29688 | 24.86887 | 687 ft | 145 kts | 45° |
| 2026-04-23 17:32 | 60.30377 | 24.88394 | 509 ft | 146 kts | 44° |
| 2026-04-23 17:32 | 60.31062 | 24.89890 | 302 ft | 145 kts | 44° |
| 2026-04-23 17:32 | 60.31732 | 24.91342 | 189 ft | 127 kts | 46° |
| 2026-04-23 17:32 | 60.32252 | 24.92495 | 188 ft | 98 kts | 46° |
| 2026-04-23 17:33 | 60.32662 | 24.93390 | 188 ft | 76 kts | 46° |
| 2026-04-23 17:33 | 60.32974 | 24.94082 | 188 ft | 54 kts | 47° |
| 2026-04-23 17:33 | 60.33111 | 24.94418 | 188 ft | 19 kts | 74° |
| 2026-04-23 17:33 | 60.33114 | 24.94675 | 188 ft | 17 kts | 91° |
| 2026-04-23 17:34 | 60.33112 | 24.94910 | 188 ft | 16 kts | 90° |
| 2026-04-23 17:34 | 60.33113 | 24.95147 | 188 ft | 17 kts | 74° |
| 2026-04-23 17:34 | 60.33180 | 24.95574 | 188 ft | 21 kts | 139° |
| 2026-04-23 17:35 | 60.33060 | 24.95780 | 188 ft | 23 kts | 146° |
| 2026-04-23 17:35 | 60.32775 | 24.96118 | 188 ft | 26 kts | 150° |
| 2026-04-23 17:35 | 60.32626 | 24.96290 | 188 ft | 18 kts | 150° |
| 2026-04-23 17:36 | 60.32566 | 24.96363 | 188 ft | 4 kts | 149° |
| 2026-04-23 17:36 | 60.32548 | 24.96385 | 188 ft | 1 kts | 149° |
| 2026-04-23 17:36 | 60.32545 | 24.96389 | 188 ft | 0 kts | 149° |
| 2026-04-23 17:37 | 60.32538 | 24.96396 | 188 ft | 3 kts | 150° |
| 2026-04-23 17:37 | 60.32439 | 24.96510 | 188 ft | 11 kts | 150° |
| 2026-04-23 17:38 | 60.32371 | 24.96589 | 188 ft | 11 kts | 150° |
| 2026-04-23 17:38 | 60.32293 | 24.96678 | 188 ft | 15 kts | 149° |
| 2026-04-23 17:38 | 60.32200 | 24.96789 | 188 ft | 19 kts | 150° |
| 2026-04-23 17:38 | 60.32072 | 24.96935 | 188 ft | 20 kts | 152° |
| 2026-04-23 17:39 | 60.31973 | 24.97040 | 188 ft | 10 kts | 152° |
| 2026-04-23 17:39 | 60.31930 | 24.97056 | 188 ft | 4 kts | 214° |
| 2026-04-23 17:39 | 60.31916 | 24.97010 | 188 ft | 3 kts | 242° |
| 2026-04-23 17:39 | 60.31907 | 24.96975 | 188 ft | 2 kts | 242° |
| 2026-04-23 17:40 | 60.31905 | 24.96967 | 188 ft | 0 kts | 242° |